Time;durP1;ratioP1;P1;durP2;ratioP2;P2;SDS_P1;SDS_P2;PMS_P1;PMS_P2;Temp;Humidity;BMP_temperature;BMP_pressure;BME280_temperature;BME280_humidity;BME280_pressure;Samples;Min_cycle;Max_cycle;Signal;HPM_P1;HPM_P2
2021/05/09 00:01:19;;;;;;;6.88;4.30;;;12.90;55.80;;;;;;5054557;28;20399;-75
2021/05/09 00:03:45;;;;;;;5.10;3.80;;;12.80;55.40;;;;;;5072913;28;20376;-75
2021/05/09 00:06:10;;;;;;;5.20;4.20;;;12.80;55.80;;;;;;5055067;28;20412;-76
2021/05/09 00:08:36;;;;;;;7.90;4.43;;;12.70;56.10;;;;;;5052144;28;20398;-75
2021/05/09 00:11:02;;;;;;;6.07;4.53;;;12.70;56.10;;;;;;5051130;28;20409;-73
2021/05/09 00:13:27;;;;;;;5.97;4.25;;;12.70;56.10;;;;;;5052957;28;20390;-73
2021/05/09 00:15:53;;;;;;;9.77;4.70;;;12.70;55.80;;;;;;5056666;28;20488;-75
2021/05/09 00:18:19;;;;;;;5.45;3.97;;;12.70;56.20;;;;;;5053429;28;20392;-75
2021/05/09 00:20:44;;;;;;;6.40;3.90;;;12.70;55.90;;;;;;5053807;28;20394;-74
2021/05/09 00:23:10;;;;;;;4.72;4.05;;;12.70;55.70;;;;;;5059823;28;20389;-75
2021/05/09 00:25:36;;;;;;;6.57;4.38;;;12.70;55.80;;;;;;5056068;28;20936;-74
2021/05/09 00:28:02;;;;;;;6.10;4.10;;;12.70;55.50;;;;;;5053032;28;20405;-75
2021/05/09 00:30:27;;;;;;;4.40;4.00;;;12.60;55.40;;;;;;5052790;28;20477;-74
2021/05/09 00:32:53;;;;;;;6.17;4.60;;;12.60;55.60;;;;;;5044840;28;20400;-75
2021/05/09 00:35:18;;;;;;;5.63;4.20;;;12.70;54.80;;;;;;5052718;28;20408;-75
2021/05/09 00:37:44;;;;;;;5.13;3.88;;;12.80;54.00;;;;;;5053597;28;20404;-75
2021/05/09 00:40:10;;;;;;;6.10;4.60;;;12.80;53.90;;;;;;5054940;28;20385;-75
2021/05/09 00:42:37;;;;;;;5.43;4.28;;;12.70;54.20;;;;;;5060663;28;20453;-75
2021/05/09 00:45:04;;;;;;;4.93;4.35;;;12.60;54.70;;;;;;5058720;28;20397;-75
2021/05/09 00:47:30;;;;;;;5.10;4.60;;;12.60;55.30;;;;;;5057030;28;20389;-76
2021/05/09 00:49:57;;;;;;;10.20;4.57;;;12.60;55.40;;;;;;5056214;28;20405;-74
2021/05/09 00:52:24;;;;;;;5.45;4.40;;;12.50;56.20;;;;;;5054417;28;20412;-74
2021/05/09 00:54:57;;;;;;;6.15;4.60;;;12.50;56.70;;;;;;5057150;28;20412;-74
2021/05/09 00:57:24;;;;;;;6.43;4.65;;;12.50;57.10;;;;;;5038872;28;20387;-76
2021/05/09 00:59:52;;;;;;;6.88;4.78;;;12.50;56.40;;;;;;5044901;28;20401;-75
2021/05/09 01:02:19;;;;;;;6.88;4.90;;;12.50;55.90;;;;;;5058662;28;20385;-75
2021/05/09 01:04:45;;;;;;;8.20;5.10;;;12.50;55.90;;;;;;5058391;28;20401;-75
2021/05/09 01:07:13;;;;;;;6.50;4.80;;;12.40;56.30;;;;;;5056951;28;20404;-75
2021/05/09 01:09:39;;;;;;;5.80;4.40;;;12.40;56.30;;;;;;5052953;28;20398;-74
2021/05/09 01:12:05;;;;;;;7.13;4.40;;;12.40;56.40;;;;;;5051924;28;20793;-76
2021/05/09 01:14:30;;;;;;;7.32;4.50;;;12.50;56.10;;;;;;5051165;28;20500;-74
2021/05/09 01:16:56;;;;;;;6.05;4.88;;;12.50;55.40;;;;;;5050086;28;20465;-75
2021/05/09 01:19:21;;;;;;;6.80;4.80;;;12.50;55.30;;;;;;5051569;28;20389;-75
2021/05/09 01:21:47;;;;;;;5.53;4.57;;;12.40;55.80;;;;;;5052491;28;20460;-76
2021/05/09 01:24:13;;;;;;;6.73;4.60;;;12.50;55.80;;;;;;5053595;28;20388;-75
2021/05/09 01:26:39;;;;;;;6.60;5.00;;;12.50;55.70;;;;;;5054801;28;20400;-76
2021/05/09 01:29:04;;;;;;;6.45;4.60;;;12.40;55.30;;;;;;5052044;28;20393;-76
2021/05/09 01:31:30;;;;;;;6.35;4.05;;;12.40;55.90;;;;;;5054463;28;20397;-76
2021/05/09 01:33:55;;;;;;;6.27;4.17;;;12.40;55.20;;;;;;5054508;28;20432;-74
2021/05/09 01:36:21;;;;;;;6.10;4.20;;;12.30;55.50;;;;;;5051857;28;20385;-75
2021/05/09 01:38:47;;;;;;;5.03;4.20;;;12.30;55.30;;;;;;5051192;28;20389;-77
2021/05/09 01:41:12;;;;;;;4.33;3.63;;;12.30;55.80;;;;;;5051823;28;20404;-76
2021/05/09 01:43:39;;;;;;;5.67;4.17;;;12.20;56.30;;;;;;5052280;28;20788;-74
2021/05/09 01:46:05;;;;;;;5.65;4.65;;;12.20;56.20;;;;;;5052262;28;20468;-75
2021/05/09 01:48:30;;;;;;;5.20;4.60;;;12.20;56.40;;;;;;5054040;28;20441;-75
2021/05/09 01:50:56;;;;;;;4.32;3.88;;;12.20;56.20;;;;;;5056466;28;20429;-75
2021/05/09 01:53:22;;;;;;;8.75;4.40;;;12.20;56.90;;;;;;5052089;28;20409;-75
2021/05/09 01:55:47;;;;;;;5.50;4.18;;;12.20;57.20;;;;;;5052440;28;20409;-76
2021/05/09 01:58:13;;;;;;;5.17;3.90;;;12.20;56.30;;;;;;5052952;28;20995;-77
2021/05/09 02:00:39;;;;;;;5.72;3.80;;;12.10;56.90;;;;;;5051455;28;21001;-75
2021/05/09 02:03:05;;;;;;;4.80;4.00;;;12.10;57.40;;;;;;5049687;28;20440;-75
2021/05/09 02:05:30;;;;;;;5.50;4.32;;;12.10;57.60;;;;;;5050167;28;20462;-75
2021/05/09 02:07:56;;;;;;;6.53;4.00;;;12.10;58.20;;;;;;5050171;28;20919;-75
2021/05/09 02:10:21;;;;;;;5.00;3.67;;;12.00;58.40;;;;;;5049946;28;20401;-74
2021/05/09 02:12:47;;;;;;;5.03;4.50;;;12.00;58.60;;;;;;5049009;28;20914;-73
2021/05/09 02:15:13;;;;;;;4.88;4.03;;;12.00;58.60;;;;;;5049479;28;20431;-74
2021/05/09 02:17:38;;;;;;;4.53;4.13;;;12.00;58.70;;;;;;5050099;28;20531;-74
2021/05/09 02:20:06;;;;;;;5.53;3.80;;;12.00;59.10;;;;;;5050054;28;20480;-74
2021/05/09 02:22:32;;;;;;;5.47;4.20;;;11.90;59.40;;;;;;5050062;28;20385;-74
2021/05/09 02:24:58;;;;;;;6.73;3.97;;;11.90;60.10;;;;;;5049370;28;20401;-75
2021/05/09 02:27:23;;;;;;;4.27;3.87;;;11.90;59.90;;;;;;5049985;28;21138;-75
2021/05/09 02:29:49;;;;;;;4.43;4.03;;;11.90;59.50;;;;;;5049787;28;20790;-74
2021/05/09 02:32:15;;;;;;;4.90;3.53;;;11.90;59.70;;;;;;5050000;28;20411;-75
2021/05/09 02:34:40;;;;;;;7.60;3.92;;;12.00;58.90;;;;;;5049111;28;20416;-73
2021/05/09 02:37:06;;;;;;;4.97;3.75;;;12.00;59.50;;;;;;5049903;28;20377;-75
2021/05/09 02:39:32;;;;;;;4.20;3.80;;;12.00;58.70;;;;;;5049635;28;20393;-74
2021/05/09 02:41:58;;;;;;;5.10;4.17;;;12.00;59.60;;;;;;5049924;28;20385;-75
2021/05/09 02:44:23;;;;;;;4.50;4.10;;;12.00;59.80;;;;;;5049341;28;20889;-74
2021/05/09 02:46:49;;;;;;;4.47;3.53;;;12.00;60.50;;;;;;5048744;28;20878;-74
2021/05/09 02:49:14;;;;;;;5.67;4.10;;;12.00;59.70;;;;;;5048131;28;20401;-74
2021/05/09 02:51:40;;;;;;;3.90;3.50;;;12.00;59.90;;;;;;5032360;28;20775;-73
2021/05/09 02:54:05;;;;;;;5.57;3.60;;;12.00;60.20;;;;;;5049225;28;20415;-75
2021/05/09 02:56:31;;;;;;;5.75;3.80;;;12.10;60.30;;;;;;5050110;28;20773;-75
2021/05/09 02:58:57;;;;;;;4.55;3.78;;;12.10;59.30;;;;;;5049266;28;20401;-74
2021/05/09 03:01:23;;;;;;;4.70;4.05;;;12.10;59.50;;;;;;5049878;28;21019;-76
2021/05/09 03:03:49;;;;;;;4.50;3.50;;;12.10;59.70;;;;;;5049608;28;20405;-76
2021/05/09 03:06:14;;;;;;;5.93;3.55;;;12.10;60.00;;;;;;5049474;28;20410;-74
2021/05/09 03:08:40;;;;;;;4.20;3.70;;;12.20;60.00;;;;;;5049689;28;20393;-74
2021/05/09 03:11:05;;;;;;;5.60;3.50;;;12.20;59.80;;;;;;5052385;28;20878;-75
2021/05/09 03:13:31;;;;;;;4.13;3.33;;;12.20;59.40;;;;;;5051144;28;20432;-74
2021/05/09 03:15:58;;;;;;;4.80;3.80;;;12.20;59.60;;;;;;5052615;28;20412;-73
2021/05/09 03:18:24;;;;;;;5.28;3.80;;;12.10;60.10;;;;;;5053235;28;20484;-74
2021/05/09 03:20:50;;;;;;;4.63;4.13;;;12.10;60.80;;;;;;5053692;28;20463;-75
2021/05/09 03:23:15;;;;;;;6.30;3.70;;;12.10;62.10;;;;;;5053689;28;20381;-75
2021/05/09 03:25:41;;;;;;;5.00;3.70;;;12.10;61.50;;;;;;5053749;28;20405;-75
2021/05/09 03:28:06;;;;;;;4.43;3.60;;;12.00;62.20;;;;;;5053730;28;20542;-75
2021/05/09 03:30:32;;;;;;;4.27;3.83;;;12.00;63.10;;;;;;5053793;28;20464;-75
2021/05/09 03:32:57;;;;;;;4.32;3.70;;;11.90;64.10;;;;;;5053286;28;20827;-74
2021/05/09 03:35:23;;;;;;;5.90;3.67;;;11.90;64.80;;;;;;5057317;28;20448;-75
2021/05/09 03:37:49;;;;;;;4.20;3.80;;;12.00;64.10;;;;;;5062427;28;20425;-75
2021/05/09 03:40:15;;;;;;;8.32;3.50;;;12.00;64.30;;;;;;5055880;28;20482;-75
2021/05/09 03:42:41;;;;;;;4.40;3.60;;;12.00;64.10;;;;;;5053879;28;20381;-76
2021/05/09 03:45:08;;;;;;;6.50;3.70;;;11.90;65.00;;;;;;5053761;28;20405;-75
2021/05/09 03:47:35;;;;;;;3.40;3.10;;;12.00;65.30;;;;;;5066010;23;20832;-81
2021/05/09 03:50:02;;;;;;;3.58;3.28;;;12.00;64.90;;;;;;5083926;28;20395;-82
2021/05/09 03:52:27;;;;;;;3.80;3.50;;;12.10;65.30;;;;;;5084307;28;20740;-82
2021/05/09 03:54:53;;;;;;;5.70;4.00;;;12.10;65.60;;;;;;5083585;28;20407;-80
2021/05/09 03:57:18;;;;;;;6.00;3.60;;;12.10;64.90;;;;;;5085646;28;20392;-81
2021/05/09 03:59:44;;;;;;;4.18;3.55;;;12.20;65.40;;;;;;5064351;28;20396;-82
2021/05/09 04:02:10;;;;;;;4.70;3.35;;;12.20;63.80;;;;;;5064474;28;20390;-82
2021/05/09 04:04:36;;;;;;;6.78;4.55;;;12.30;63.50;;;;;;5065617;28;20385;-83
2021/05/09 04:07:02;;;;;;;3.47;3.17;;;12.20;64.80;;;;;;5065004;28;20403;-83
2021/05/09 04:09:27;;;;;;;4.03;3.53;;;12.20;64.40;;;;;;5068773;28;20451;-80
2021/05/09 04:11:53;;;;;;;5.97;3.87;;;12.20;65.00;;;;;;5072742;28;20377;-79
2021/05/09 04:14:18;;;;;;;3.83;3.47;;;12.20;65.50;;;;;;5072327;28;20405;-81
2021/05/09 04:16:44;;;;;;;5.63;3.70;;;12.30;64.90;;;;;;5065747;28;20400;-80
2021/05/09 04:19:10;;;;;;;4.07;3.55;;;12.30;64.40;;;;;;5058012;28;20385;-79
2021/05/09 04:21:35;;;;;;;6.43;4.50;;;12.30;63.90;;;;;;5074267;28;20420;-80
2021/05/09 04:24:01;;;;;;;3.70;3.40;;;12.30;64.00;;;;;;5070130;28;20882;-82
2021/05/09 04:26:26;;;;;;;3.58;3.20;;;12.40;63.00;;;;;;5070299;28;20385;-77
2021/05/09 04:28:52;;;;;;;4.38;3.50;;;12.40;62.40;;;;;;5066807;28;20405;-82
2021/05/09 04:31:18;;;;;;;4.00;3.30;;;12.50;61.70;;;;;;5065824;28;20430;-77
2021/05/09 04:33:43;;;;;;;5.37;3.20;;;12.60;60.50;;;;;;5076884;28;20393;-77
2021/05/09 04:36:09;;;;;;;4.37;3.70;;;12.70;59.80;;;;;;5077253;28;20405;-78
2021/05/09 04:38:35;;;;;;;5.03;3.90;;;12.70;59.20;;;;;;5073224;28;20483;-78
2021/05/09 04:41:00;;;;;;;3.97;3.60;;;12.80;59.40;;;;;;5069039;28;20449;-81
2021/05/09 04:43:26;;;;;;;5.03;4.03;;;12.90;58.30;;;;;;5061098;28;20401;-81
2021/05/09 04:45:54;;;;;;;3.93;3.60;;;12.90;57.50;;;;;;5060581;28;20401;-78
2021/05/09 04:48:20;;;;;;;8.50;3.92;;;13.00;57.50;;;;;;5059011;28;20401;-81
2021/05/09 04:50:46;;;;;;;3.97;3.50;;;13.10;56.80;;;;;;5064322;28;20786;-81
2021/05/09 04:53:21;;;;;;;3.50;3.20;;;13.20;54.90;;;;;;5063531;28;20392;-77
2021/05/09 04:55:47;;;;;;;7.40;3.27;;;13.40;53.90;;;;;;5067079;28;20453;-80
2021/05/09 04:58:12;;;;;;;4.80;3.30;;;13.50;52.40;;;;;;5066863;28;20408;-78
2021/05/09 05:00:38;;;;;;;6.40;3.43;;;13.70;51.60;;;;;;5068513;28;20411;-80
2021/05/09 05:03:03;;;;;;;3.87;3.47;;;13.80;49.50;;;;;;5067161;28;20471;-79
2021/05/09 05:05:29;;;;;;;2.90;2.70;;;14.00;49.00;;;;;;5067711;28;20404;-76
2021/05/09 05:07:54;;;;;;;5.28;3.53;;;14.20;47.20;;;;;;5071926;28;20409;-79
2021/05/09 05:10:20;;;;;;;4.80;3.20;;;14.30;45.70;;;;;;5070570;28;20416;-81
2021/05/09 05:12:45;;;;;;;2.70;2.50;;;14.40;44.90;;;;;;5067747;28;20457;-80
2021/05/09 05:15:12;;;;;;;3.67;3.10;;;14.40;44.60;;;;;;5067179;28;20409;-80
2021/05/09 05:17:37;;;;;;;4.40;3.15;;;14.50;44.50;;;;;;5065573;28;20393;-76
2021/05/09 05:20:03;;;;;;;3.20;2.90;;;14.60;43.30;;;;;;5051762;28;20484;-77
2021/05/09 05:22:29;;;;;;;2.87;2.67;;;14.60;43.60;;;;;;5054324;28;20908;-75
2021/05/09 05:24:54;;;;;;;5.40;2.77;;;14.50;43.60;;;;;;5055295;28;20419;-77
2021/05/09 05:27:20;;;;;;;5.00;3.47;;;14.50;43.80;;;;;;5051927;28;20467;-76
2021/05/09 05:29:45;;;;;;;3.63;3.08;;;14.30;45.40;;;;;;5051951;28;20408;-75
2021/05/09 05:32:11;;;;;;;3.47;3.17;;;14.30;45.40;;;;;;5049602;28;20393;-76
2021/05/09 05:34:36;;;;;;;2.40;2.20;;;14.30;45.50;;;;;;5052392;28;20409;-76
2021/05/09 05:37:02;;;;;;;3.73;3.30;;;14.40;44.90;;;;;;5051943;28;20428;-76
2021/05/09 05:39:28;;;;;;;5.43;2.78;;;14.40;45.20;;;;;;5052044;28;20388;-73
2021/05/09 05:41:54;;;;;;;2.90;2.70;;;14.60;43.90;;;;;;5051809;28;20447;-75
2021/05/09 05:44:19;;;;;;;3.47;2.90;;;14.60;43.70;;;;;;5045877;28;20394;-76
2021/05/09 05:46:45;;;;;;;3.20;2.87;;;14.70;43.40;;;;;;5053789;28;20385;-77
2021/05/09 05:49:10;;;;;;;3.80;3.00;;;14.70;43.30;;;;;;5054733;28;20398;-76
2021/05/09 05:51:36;;;;;;;2.75;2.55;;;14.80;42.30;;;;;;5053894;28;20398;-76
2021/05/09 05:54:02;;;;;;;3.00;2.50;;;14.90;41.10;;;;;;5054889;28;20429;-76
2021/05/09 05:56:28;;;;;;;3.40;3.10;;;15.10;39.80;;;;;;5056636;28;20455;-74
2021/05/09 05:58:53;;;;;;;3.13;2.63;;;15.20;38.70;;;;;;5047077;28;20399;-76
2021/05/09 06:01:20;;;;;;;4.57;2.60;;;15.30;38.20;;;;;;5047341;28;20394;-76
2021/05/09 06:03:46;;;;;;;5.15;3.05;;;15.40;38.40;;;;;;5054690;28;20397;-76
2021/05/09 06:06:11;;;;;;;3.70;3.03;;;15.50;37.70;;;;;;5036823;28;20393;-76
2021/05/09 06:08:38;;;;;;;2.63;2.42;;;15.60;37.80;;;;;;5051549;28;20401;-76
2021/05/09 06:11:04;;;;;;;2.88;2.60;;;15.70;36.30;;;;;;5051171;28;20746;-75
2021/05/09 06:13:30;;;;;;;6.18;2.50;;;15.80;35.70;;;;;;5052471;28;20409;-76
2021/05/09 06:15:55;;;;;;;4.65;2.33;;;15.90;35.00;;;;;;5052932;28;20401;-76
2021/05/09 06:18:21;;;;;;;4.20;2.90;;;16.00;34.30;;;;;;5051921;28;20473;-76
2021/05/09 06:20:47;;;;;;;4.50;2.70;;;16.10;35.10;;;;;;5053839;28;20862;-74
2021/05/09 06:23:17;;;;;;;3.15;2.72;;;16.20;34.40;;;;;;5052258;28;20399;-74
2021/05/09 06:25:43;;;;;;;3.70;2.60;;;16.40;32.80;;;;;;5053421;28;20428;-74
2021/05/09 06:28:08;;;;;;;2.97;2.50;;;16.60;32.30;;;;;;5048157;28;20440;-75
2021/05/09 06:30:34;;;;;;;3.88;2.80;;;16.70;32.20;;;;;;5045002;28;20400;-75
2021/05/09 06:33:00;;;;;;;4.22;2.60;;;16.80;31.80;;;;;;5050721;28;20455;-76
2021/05/09 06:35:25;;;;;;;3.07;2.80;;;16.90;31.50;;;;;;5050755;28;20404;-75
2021/05/09 06:37:53;;;;;;;2.60;2.40;;;17.10;30.80;;;;;;5050137;28;20404;-74
2021/05/09 06:40:19;;;;;;;3.40;2.50;;;17.30;29.80;;;;;;5050616;28;20393;-75
2021/05/09 06:42:45;;;;;;;5.00;2.30;;;17.40;28.90;;;;;;5045645;28;20401;-75
2021/05/09 06:45:21;;;;;;;2.43;2.23;;;17.50;27.80;;;;;;5044608;28;20481;-75
2021/05/09 06:47:46;;;;;;;2.40;2.17;;;17.60;27.10;;;;;;5050062;28;20512;-74
2021/05/09 06:50:13;;;;;;;4.63;2.53;;;17.70;27.20;;;;;;5046697;28;20482;-76
2021/05/09 06:52:41;;;;;;;6.22;2.47;;;17.70;26.90;;;;;;5052845;28;20900;-75
2021/05/09 06:55:07;;;;;;;3.10;2.80;;;17.70;27.20;;;;;;5053652;28;20482;-75
2021/05/09 06:57:32;;;;;;;4.75;2.90;;;17.80;27.90;;;;;;5051053;28;20421;-75
2021/05/09 06:59:58;;;;;;;2.85;2.55;;;17.90;27.30;;;;;;5054778;28;20393;-75
2021/05/09 07:02:23;;;;;;;3.30;2.50;;;17.90;26.70;;;;;;5049868;28;21269;-75
2021/05/09 07:04:49;;;;;;;3.60;2.40;;;18.00;26.40;;;;;;5038013;28;20405;-75
2021/05/09 07:07:15;;;;;;;5.25;2.40;;;18.00;26.40;;;;;;5050465;28;20399;-74
2021/05/09 07:09:40;;;;;;;4.82;2.50;;;18.10;26.20;;;;;;5054571;28;20401;-74
2021/05/09 07:12:07;;;;;;;4.00;2.93;;;18.10;25.50;;;;;;5051340;28;20387;-80
2021/05/09 07:14:32;;;;;;;2.50;2.30;;;18.20;25.10;;;;;;5072147;28;20507;-80
2021/05/09 07:16:58;;;;;;;4.13;2.80;;;18.30;25.00;;;;;;5063876;28;20853;-75
2021/05/09 07:19:24;;;;;;;4.93;2.67;;;18.40;24.60;;;;;;5057398;28;20385;-77
2021/05/09 07:21:55;;;;;;;4.40;2.80;;;18.50;23.70;;;;;;5069972;28;20680;-75
2021/05/09 07:24:20;;;;;;;4.40;2.45;;;18.60;23.30;;;;;;5067961;28;20400;-77
2021/05/09 07:26:47;;;;;;;9.90;3.40;;;18.70;23.60;;;;;;5062615;28;20401;-77
2021/05/09 07:29:13;;;;;;;2.65;2.45;;;18.80;23.50;;;;;;5065672;28;20416;-77
2021/05/09 07:31:41;;;;;;;2.60;2.40;;;18.90;23.80;;;;;;5065055;28;20394;-76
2021/05/09 07:34:10;;;;;;;3.67;2.97;;;18.90;23.00;;;;;;5065685;28;20393;-77
2021/05/09 07:36:38;;;;;;;6.90;3.00;;;19.00;22.90;;;;;;5067186;28;20404;-77
2021/05/09 07:39:04;;;;;;;5.80;3.30;;;19.20;22.10;;;;;;5059156;28;20380;-78
2021/05/09 07:41:30;;;;;;;5.60;3.13;;;19.20;22.20;;;;;;5059465;28;20419;-82
2021/05/09 07:43:56;;;;;;;6.40;2.80;;;19.40;21.50;;;;;;5067370;28;20381;-78
2021/05/09 07:46:21;;;;;;;3.75;2.80;;;19.50;21.20;;;;;;5061174;28;20818;-81
2021/05/09 07:48:47;;;;;;;5.03;2.60;;;19.50;21.10;;;;;;5060932;28;20437;-79
2021/05/09 07:51:13;;;;;;;3.83;2.70;;;19.60;21.40;;;;;;5055495;28;20823;-76
2021/05/09 07:53:39;;;;;;;2.77;2.50;;;19.70;21.40;;;;;;5051301;28;20413;-76
2021/05/09 07:56:04;;;;;;;2.97;2.57;;;19.90;20.70;;;;;;5053003;28;20695;-78
2021/05/09 07:58:31;;;;;;;2.63;2.42;;;20.00;19.90;;;;;;5063975;28;20443;-80
2021/05/09 08:01:02;;;;;;;3.17;2.80;;;20.30;19.50;;;;;;5064775;28;20439;-81
2021/05/09 08:03:27;;;;;;;5.60;2.50;;;20.50;19.60;;;;;;5071362;28;20389;-79
2021/05/09 08:05:53;;;;;;;3.37;2.70;;;20.80;18.90;;;;;;5064061;28;20911;-77
2021/05/09 08:08:20;;;;;;;6.30;2.90;;;20.90;18.00;;;;;;5048645;28;20457;-77
2021/05/09 08:10:46;;;;;;;3.30;2.63;;;21.00;18.50;;;;;;5041511;28;20388;-78
2021/05/09 08:13:12;;;;;;;3.50;2.40;;;21.10;18.10;;;;;;5041684;28;20867;-77
2021/05/09 08:15:39;;;;;;;5.33;2.60;;;21.10;18.10;;;;;;5059495;28;20455;-77
2021/05/09 08:18:05;;;;;;;3.97;2.67;;;21.20;17.80;;;;;;5062064;28;20461;-79
2021/05/09 08:20:31;;;;;;;3.60;2.97;;;21.30;18.30;;;;;;5060628;28;20389;-78
2021/05/09 08:22:57;;;;;;;4.17;2.90;;;21.40;17.90;;;;;;5047771;28;20421;-78
2021/05/09 08:25:22;;;;;;;4.00;2.57;;;21.60;17.80;;;;;;5052880;28;20406;-78
2021/05/09 08:27:49;;;;;;;3.00;2.60;;;21.80;17.50;;;;;;5043444;28;20404;-78
2021/05/09 08:30:16;;;;;;;4.50;2.40;;;22.00;16.40;;;;;;5055613;28;20878;-78
2021/05/09 08:32:42;;;;;;;3.00;2.60;;;22.20;16.10;;;;;;5054774;28;20412;-81
2021/05/09 08:35:10;;;;;;;3.17;2.50;;;22.20;16.20;;;;;;5054104;28;20420;-75
2021/05/09 08:37:37;;;;;;;7.00;3.00;;;22.40;15.70;;;;;;5039861;28;20486;-73
2021/05/09 08:40:03;;;;;;;3.05;2.35;;;22.70;15.70;;;;;;5049115;28;20490;-74
2021/05/09 08:42:29;;;;;;;4.00;2.10;;;23.00;14.30;;;;;;5048035;28;20817;-75
2021/05/09 08:44:55;;;;;;;5.40;3.67;;;23.30;13.30;;;;;;5035476;28;20399;-74
2021/05/09 08:47:21;;;;;;;5.20;2.80;;;23.50;13.50;;;;;;5065474;28;20457;-74
2021/05/09 08:49:51;;;;;;;7.63;2.97;;;23.70;13.00;;;;;;5051538;28;20401;-74
2021/05/09 08:52:18;;;;;;;3.00;2.60;;;23.70;13.00;;;;;;5051852;28;20429;-73
2021/05/09 08:54:44;;;;;;;5.35;2.70;;;23.50;12.80;;;;;;5051982;28;20441;-75
2021/05/09 08:57:10;;;;;;;2.88;2.33;;;23.20;13.50;;;;;;5051596;28;20420;-73
2021/05/09 08:59:37;;;;;;;7.20;2.80;;;23.10;13.80;;;;;;5052711;28;20394;-73
2021/05/09 09:02:03;;;;;;;3.42;2.90;;;22.90;14.30;;;;;;5051113;28;20571;-74
2021/05/09 09:04:52;;;;;;;4.83;2.47;;;22.90;14.90;;;;;;5043970;28;20393;-75
2021/05/09 09:07:18;;;;;;;3.78;3.00;;;22.90;15.20;;;;;;5049515;28;20409;-75
2021/05/09 09:09:46;;;;;;;4.60;2.67;;;23.20;15.20;;;;;;5048032;28;20412;-75
2021/05/09 09:12:13;;;;;;;6.07;2.70;;;23.50;14.20;;;;;;5049293;28;20389;-75
2021/05/09 09:14:58;;;;;;;4.20;3.00;;;23.50;14.00;;;;;;5043297;28;20412;-74
2021/05/09 09:17:25;;;;;;;4.72;2.70;;;23.50;14.20;;;;;;5042958;28;20874;-74
2021/05/09 09:20:08;;;;;;;6.50;3.00;;;23.60;14.20;;;;;;5051761;28;20447;-74
2021/05/09 09:22:56;;;;;;;5.13;2.70;;;23.90;13.40;;;;;;5050969;28;20790;-74
2021/05/09 09:25:33;;;;;;;7.20;2.75;;;24.10;13.00;;;;;;5050503;28;20413;-74
2021/05/09 09:28:00;;;;;;;3.17;2.78;;;24.10;12.60;;;;;;5048718;28;20487;-74
2021/05/09 09:30:29;;;;;;;3.20;2.60;;;24.00;12.40;;;;;;5034029;28;20409;-74
2021/05/09 09:33:08;;;;;;;4.47;2.78;;;24.00;12.80;;;;;;5042874;28;20390;-74
2021/05/09 09:35:34;;;;;;;4.18;3.33;;;24.00;12.70;;;;;;5044320;28;20413;-75
2021/05/09 09:38:19;;;;;;;3.03;2.73;;;24.10;12.60;;;;;;5050554;28;20556;-74
2021/05/09 09:41:08;;;;;;;4.80;2.50;;;24.40;12.30;;;;;;5051458;28;20393;-74
2021/05/09 09:43:34;;;;;;;2.80;2.60;;;24.70;11.50;;;;;;5044360;28;20447;-78
2021/05/09 09:46:00;;;;;;;2.47;2.28;;;25.00;10.70;;;;;;5055276;28;20393;-78
2021/05/09 09:48:41;;;;;;;6.00;2.67;;;25.20;10.40;;;;;;5071195;22;20472;-72
2021/05/09 09:51:09;;;;;;;3.05;2.30;;;25.40;9.80;;;;;;5063769;28;20401;-71
2021/05/09 09:53:40;;;;;;;3.42;2.60;;;25.50;9.30;;;;;;5066015;28;20484;-71
2021/05/09 09:56:13;;;;;;;3.17;2.80;;;25.50;9.20;;;;;;5049222;28;20476;-72
2021/05/09 09:58:44;;;;;;;3.47;2.30;;;25.50;8.90;;;;;;5067012;28;20393;-72
2021/05/09 10:01:11;;;;;;;5.10;2.90;;;25.60;9.00;;;;;;5050323;28;20396;-71
2021/05/09 10:03:37;;;;;;;3.45;2.60;;;25.50;8.70;;;;;;5040140;28;20399;-74
2021/05/09 10:06:03;;;;;;;4.72;2.88;;;25.60;8.80;;;;;;5050181;28;20409;-73
2021/05/09 10:08:29;;;;;;;3.10;2.80;;;25.60;8.70;;;;;;5061369;28;20897;-73
2021/05/09 10:10:55;;;;;;;5.03;2.80;;;25.70;9.00;;;;;;5058908;28;20390;-72
2021/05/09 10:13:22;;;;;;;4.05;2.67;;;25.80;9.10;;;;;;5043119;28;20393;-73
2021/05/09 10:15:48;;;;;;;3.60;3.08;;;25.90;8.50;;;;;;5063507;28;20399;-74
2021/05/09 10:18:15;;;;;;;3.20;2.90;;;25.80;8.90;;;;;;5044677;28;20457;-75
2021/05/09 10:20:41;;;;;;;16.50;2.90;;;25.80;8.70;;;;;;5066938;28;20535;-76
2021/05/09 10:23:07;;;;;;;4.45;2.85;;;25.70;9.00;;;;;;5052208;28;20424;-76
2021/05/09 10:25:46;;;;;;;4.20;3.00;;;25.90;8.60;;;;;;5043674;28;20429;-76
2021/05/09 10:28:13;;;;;;;5.70;2.63;;;26.00;8.60;;;;;;5048036;28;20773;-76
2021/05/09 10:30:53;;;;;;;5.82;2.90;;;26.40;8.20;;;;;;5056943;28;20417;-77
2021/05/09 10:33:42;;;;;;;6.13;2.97;;;26.70;7.70;;;;;;5034579;28;20961;-72
2021/05/09 10:36:34;;;;;;;3.78;2.50;;;27.00;6.80;;;;;;5043275;28;20769;-72
2021/05/09 10:39:05;;;;;;;4.22;2.50;;;27.10;6.30;;;;;;5034568;28;20394;-72
2021/05/09 10:41:31;;;;;;;4.18;2.40;;;27.60;6.10;;;;;;5034426;28;20875;-72
2021/05/09 10:43:56;;;;;;;4.28;2.20;;;27.70;5.20;;;;;;5034158;28;20519;-72
2021/05/09 10:46:22;;;;;;;3.93;3.03;;;27.80;5.00;;;;;;5049174;28;20984;-73
2021/05/09 10:49:11;;;;;;;4.07;2.33;;;27.70;4.80;;;;;;5054689;28;20433;-73
2021/05/09 10:51:37;;;;;;;4.63;2.60;;;27.60;5.00;;;;;;5042835;28;20780;-72
2021/05/09 10:54:20;;;;;;;2.90;2.60;;;27.60;5.20;;;;;;5033529;28;20470;-72
2021/05/09 10:56:47;;;;;;;5.95;2.70;;;27.60;5.30;;;;;;5033901;28;20433;-72
2021/05/09 10:59:12;;;;;;;4.05;2.90;;;27.70;4.60;;;;;;5033240;28;20395;-71
2021/05/09 11:01:38;;;;;;;3.80;2.60;;;27.80;5.00;;;;;;5033915;28;20437;-71
2021/05/09 11:04:11;;;;;;;3.50;2.90;;;28.10;5.00;;;;;;5033286;28;20406;-72
2021/05/09 11:06:38;;;;;;;4.40;2.90;;;28.30;4.20;;;;;;5049450;28;20413;-71
2021/05/09 11:09:05;;;;;;;3.38;2.47;;;28.40;4.00;;;;;;5053426;28;20385;-72
2021/05/09 11:11:31;;;;;;;4.73;3.07;;;28.40;3.60;;;;;;5054068;28;20417;-70
2021/05/09 11:14:00;;;;;;;4.90;3.00;;;28.40;4.30;;;;;;5052705;28;20413;-73
2021/05/09 11:16:31;;;;;;;4.20;2.30;;;28.40;3.90;;;;;;5053115;28;20401;-72
2021/05/09 11:19:07;;;;;;;3.75;2.95;;;28.20;4.30;;;;;;5053835;28;20813;-72
2021/05/09 11:21:34;;;;;;;6.05;2.65;;;28.20;4.60;;;;;;5049073;28;20397;-71
2021/05/09 11:24:01;;;;;;;3.60;2.80;;;27.90;4.80;;;;;;5052736;28;20385;-70
2021/05/09 11:26:29;;;;;;;5.35;2.65;;;27.70;5.10;;;;;;5052323;28;20940;-70
2021/05/09 11:29:16;;;;;;;5.15;2.60;;;27.50;5.50;;;;;;5052449;28;20434;-71
2021/05/09 11:31:48;;;;;;;8.30;2.88;;;27.20;6.30;;;;;;5051928;28;20940;-70
2021/05/09 11:34:15;;;;;;;4.45;2.35;;;27.10;6.50;;;;;;5052526;28;20409;-71
2021/05/09 11:36:46;;;;;;;3.30;2.80;;;27.00;6.80;;;;;;5037408;28;20394;-72
2021/05/09 11:39:17;;;;;;;3.10;2.80;;;26.90;6.30;;;;;;5032627;28;20847;-72
2021/05/09 11:41:54;;;;;;;5.20;2.50;;;27.00;7.10;;;;;;5032578;28;20417;-72
2021/05/09 11:44:22;;;;;;;4.10;2.88;;;26.90;6.80;;;;;;5032059;28;20383;-72
2021/05/09 11:46:48;;;;;;;4.40;2.80;;;27.10;6.90;;;;;;5048628;28;20880;-72
2021/05/09 11:49:19;;;;;;;4.72;2.38;;;27.10;6.90;;;;;;5051749;28;20400;-71
2021/05/09 11:52:02;;;;;;;6.72;2.50;;;27.20;6.80;;;;;;5052394;28;20397;-71
2021/05/09 11:54:31;;;;;;;3.88;2.70;;;27.10;6.30;;;;;;5053219;28;20413;-72
2021/05/09 11:57:02;;;;;;;5.22;2.50;;;27.10;6.40;;;;;;5052171;28;20405;-72
2021/05/09 11:59:28;;;;;;;2.67;2.42;;;27.10;6.50;;;;;;5052370;28;20384;-72
2021/05/09 12:01:53;;;;;;;3.33;2.78;;;27.20;7.00;;;;;;5049137;28;20975;-72
2021/05/09 12:04:19;;;;;;;4.35;3.00;;;27.30;6.90;;;;;;5032113;28;20495;-72
2021/05/09 12:06:45;;;;;;;4.13;2.70;;;27.40;6.90;;;;;;5040603;28;20688;-72
2021/05/09 12:09:11;;;;;;;3.90;2.60;;;27.60;6.70;;;;;;5039855;28;20755;-72
2021/05/09 12:11:39;;;;;;;3.30;2.70;;;27.60;6.40;;;;;;5032158;28;20391;-72
2021/05/09 12:14:05;;;;;;;5.57;2.60;;;27.60;6.40;;;;;;5031831;28;20496;-71
2021/05/09 12:16:44;;;;;;;3.10;2.30;;;27.60;6.10;;;;;;5037672;28;20439;-71
2021/05/09 12:19:09;;;;;;;3.67;2.40;;;27.60;6.30;;;;;;5047481;28;20467;-73
2021/05/09 12:21:35;;;;;;;4.68;3.03;;;27.70;6.40;;;;;;5037274;28;20401;-73
2021/05/09 12:24:07;;;;;;;7.38;5.00;;;27.80;6.70;;;;;;5049621;28;20917;-73
2021/05/09 12:26:36;;;;;;;9.47;7.93;;;28.00;6.50;;;;;;5050268;28;20421;-74
2021/05/09 12:29:15;;;;;;;7.22;4.95;;;28.10;5.60;;;;;;5049044;28;20869;-71
2021/05/09 12:31:41;;;;;;;4.45;2.35;;;28.20;5.50;;;;;;5050716;28;20378;-73
2021/05/09 12:34:06;;;;;;;3.90;3.13;;;28.30;5.40;;;;;;5035877;28;20403;-71
2021/05/09 12:36:32;;;;;;;4.47;2.97;;;28.30;5.20;;;;;;5051157;28;20412;-73
2021/05/09 12:39:00;;;;;;;3.90;2.60;;;28.30;5.00;;;;;;5051678;28;20396;-72
2021/05/09 12:41:25;;;;;;;6.55;2.47;;;28.40;4.90;;;;;;5054873;28;20483;-72
2021/05/09 12:43:56;;;;;;;3.50;2.20;;;28.50;3.70;;;;;;5050406;28;20447;-74
2021/05/09 12:46:45;;;;;;;7.40;2.70;;;28.50;2.40;;;;;;5052186;28;20420;-73
2021/05/09 12:49:22;;;;;;;7.32;2.83;;;28.40;2.80;;;;;;5038898;28;20438;-73